Time;durP1;ratioP1;P1;durP2;ratioP2;P2;SDS_P1;SDS_P2;PMS_P1;PMS_P2;Temp;Humidity;BMP_temperature;BMP_pressure;BME280_temperature;BME280_humidity;BME280_pressure;Samples;Min_cycle;Max_cycle;Signal;HPM_P1;HPM_P2
2022/09/30 00:01:16;;;;;;;3.53;2.92;;;9.60;89.50;;;;;;5094999;28;20048;-77
2022/09/30 00:03:42;;;;;;;3.80;2.78;;;9.60;89.50;;;;;;5111787;28;20040;-77
2022/09/30 00:06:09;;;;;;;3.55;2.60;;;9.60;89.50;;;;;;5111892;28;20106;-77
2022/09/30 00:08:39;;;;;;;5.05;2.67;;;9.60;89.50;;;;;;5095092;28;20044;-77
2022/09/30 00:11:07;;;;;;;4.55;3.08;;;9.60;89.50;;;;;;5111887;28;20082;-76
2022/09/30 00:13:39;;;;;;;4.38;2.92;;;9.60;89.50;;;;;;5112101;28;20125;-76
2022/09/30 00:16:05;;;;;;;3.28;2.97;;;9.60;89.50;;;;;;5095234;28;20136;-77
2022/09/30 00:18:32;;;;;;;4.07;2.78;;;9.60;89.50;;;;;;5112048;28;20443;-77
2022/09/30 00:20:58;;;;;;;6.07;2.90;;;9.60;89.60;;;;;;5111809;28;20484;-77
2022/09/30 00:23:24;;;;;;;4.22;3.08;;;9.50;89.60;;;;;;5111666;28;20040;-77
2022/09/30 00:25:55;;;;;;;4.35;3.60;;;9.60;89.60;;;;;;5111661;28;20044;-77
2022/09/30 00:28:21;;;;;;;3.42;3.13;;;9.50;89.70;;;;;;5111786;28;20038;-77
2022/09/30 00:30:47;;;;;;;4.85;3.20;;;9.50;89.70;;;;;;5111776;28;20039;-77
2022/09/30 00:33:13;;;;;;;4.65;3.75;;;9.50;89.70;;;;;;5111839;28;20048;-77
2022/09/30 00:35:38;;;;;;;3.58;2.78;;;9.50;89.70;;;;;;5111621;28;20039;-78
2022/09/30 00:38:04;;;;;;;6.13;2.88;;;9.50;89.80;;;;;;5111418;28;20043;-77
2022/09/30 00:40:30;;;;;;;7.13;3.53;;;9.50;89.80;;;;;;5078099;28;20081;-77
2022/09/30 00:42:57;;;;;;;3.30;3.00;;;9.50;89.70;;;;;;5111570;28;20040;-77
2022/09/30 00:45:28;;;;;;;3.78;3.17;;;9.50;89.70;;;;;;5111426;28;20036;-77
2022/09/30 00:48:04;;;;;;;4.80;3.40;;;9.40;89.60;;;;;;5111584;28;20047;-77
2022/09/30 00:50:45;;;;;;;4.07;2.60;;;9.30;89.50;;;;;;5111596;28;20043;-77
2022/09/30 00:53:41;;;;;;;4.25;2.45;;;9.30;89.50;;;;;;5111585;28;20050;-77
2022/09/30 00:56:11;;;;;;;4.50;3.10;;;9.20;89.50;;;;;;5096173;28;20038;-77
2022/09/30 00:59:05;;;;;;;3.20;2.70;;;9.20;89.40;;;;;;5115230;28;20096;-77
2022/09/30 01:01:31;;;;;;;3.35;2.85;;;9.20;89.40;;;;;;5115168;28;20550;-77
2022/09/30 01:04:04;;;;;;;3.72;3.10;;;9.10;89.40;;;;;;5098295;28;20044;-77
2022/09/30 01:06:30;;;;;;;3.95;3.55;;;9.10;89.40;;;;;;5115316;28;20588;-77
2022/09/30 01:08:57;;;;;;;3.08;2.53;;;9.10;89.40;;;;;;5098288;28;20040;-77
2022/09/30 01:11:23;;;;;;;3.97;2.28;;;9.10;89.50;;;;;;5114951;28;20036;-77
2022/09/30 01:13:53;;;;;;;2.67;2.08;;;9.00;89.50;;;;;;5114815;28;20057;-77
2022/09/30 01:16:43;;;;;;;3.67;1.85;;;9.00;89.50;;;;;;5097850;28;20678;-77
2022/09/30 01:19:23;;;;;;;2.90;2.50;;;9.00;89.40;;;;;;5114836;28;20036;-77
2022/09/30 01:22:07;;;;;;;3.03;2.20;;;9.00;89.40;;;;;;5097766;28;20036;-77
2022/09/30 01:24:35;;;;;;;4.10;3.10;;;8.90;89.40;;;;;;5097701;28;20044;-77
2022/09/30 01:27:29;;;;;;;3.97;2.25;;;8.90;89.50;;;;;;5114639;28;20116;-77
2022/09/30 01:29:55;;;;;;;2.70;2.20;;;8.80;89.40;;;;;;5097887;28;20108;-77
2022/09/30 01:32:57;;;;;;;4.88;2.63;;;8.80;89.60;;;;;;5114547;28;20475;-77
2022/09/30 01:35:48;;;;;;;5.20;2.80;;;8.90;89.60;;;;;;5114535;28;20039;-77
2022/09/30 01:38:19;;;;;;;3.67;2.78;;;8.80;89.50;;;;;;5114290;28;20054;-77
2022/09/30 01:40:53;;;;;;;3.25;2.75;;;8.80;89.50;;;;;;5114476;28;20084;-77
2022/09/30 01:43:29;;;;;;;11.00;2.40;;;8.80;89.50;;;;;;5114322;28;20100;-77
2022/09/30 01:46:04;;;;;;;1.98;1.30;;;8.80;89.50;;;;;;5114319;28;20047;-77
2022/09/30 01:48:43;;;;;;;2.72;1.15;;;8.70;89.30;;;;;;5114342;28;20036;-77
2022/09/30 01:51:26;;;;;;;1.20;0.70;;;8.50;89.20;;;;;;5114630;28;20047;-77
2022/09/30 01:54:00;;;;;;;1.35;0.98;;;8.40;89.20;;;;;;5097192;28;20067;-77
2022/09/30 01:56:46;;;;;;;1.67;1.02;;;8.40;89.10;;;;;;5114188;28;20080;-77
2022/09/30 01:59:23;;;;;;;18.60;1.95;;;8.30;89.20;;;;;;5114603;28;20429;-76
2022/09/30 02:01:56;;;;;;;2.67;1.60;;;8.30;89.20;;;;;;5114065;28;20118;-77
2022/09/30 02:04:29;;;;;;;3.85;1.92;;;8.20;89.30;;;;;;5096852;28;20051;-77
2022/09/30 02:06:59;;;;;;;2.95;2.45;;;8.20;89.40;;;;;;5113515;28;20036;-77
2022/09/30 02:09:41;;;;;;;2.45;2.25;;;8.20;89.40;;;;;;5113889;28;20043;-77
2022/09/30 02:12:13;;;;;;;3.15;2.67;;;8.20;89.50;;;;;;5113769;28;20052;-77
2022/09/30 02:15:02;;;;;;;3.35;2.40;;;8.20;89.60;;;;;;5096710;28;20036;-77
2022/09/30 02:17:44;;;;;;;3.15;2.50;;;8.10;89.60;;;;;;5113689;28;20047;-77
2022/09/30 02:20:19;;;;;;;3.30;2.42;;;8.20;89.70;;;;;;5113968;28;20039;-77
2022/09/30 02:22:49;;;;;;;5.25;2.60;;;8.10;89.70;;;;;;5113629;28;20047;-77
2022/09/30 02:25:28;;;;;;;3.63;2.63;;;8.20;89.80;;;;;;5096463;28;20537;-77
2022/09/30 02:28:02;;;;;;;2.90;2.53;;;8.20;89.80;;;;;;5113762;28;20387;-77
2022/09/30 02:30:28;;;;;;;2.78;2.58;;;8.10;89.70;;;;;;5113709;28;20123;-77
2022/09/30 02:33:06;;;;;;;2.88;2.60;;;8.10;89.60;;;;;;5096567;28;20042;-78
2022/09/30 02:35:43;;;;;;;2.85;2.20;;;8.10;89.60;;;;;;5113310;28;20047;-77
2022/09/30 02:38:25;;;;;;;3.17;2.60;;;8.10;89.50;;;;;;5096181;28;20039;-77
2022/09/30 02:40:57;;;;;;;3.20;2.65;;;8.10;89.50;;;;;;5113291;28;20055;-77
2022/09/30 02:43:24;;;;;;;3.63;2.83;;;8.10;89.60;;;;;;5096299;28;20127;-77
2022/09/30 02:46:27;;;;;;;3.20;2.90;;;8.10;89.50;;;;;;5113108;28;20040;-77
2022/09/30 02:49:05;;;;;;;3.72;3.13;;;8.10;89.60;;;;;;5096020;28;20046;-77
2022/09/30 02:52:01;;;;;;;4.18;2.67;;;8.10;89.60;;;;;;5112999;28;20488;-77
2022/09/30 02:54:40;;;;;;;3.03;2.45;;;8.10;89.70;;;;;;5112896;28;20484;-77
2022/09/30 02:57:18;;;;;;;3.72;2.53;;;8.10;89.90;;;;;;5112974;28;20043;-77
2022/09/30 02:59:47;;;;;;;3.40;2.83;;;8.10;89.80;;;;;;5113243;28;20057;-77
2022/09/30 03:02:13;;;;;;;2.88;2.65;;;8.00;89.90;;;;;;5112782;28;20144;-77
2022/09/30 03:04:40;;;;;;;3.67;3.25;;;8.00;90.00;;;;;;5112595;28;20575;-77
2022/09/30 03:07:07;;;;;;;4.00;3.45;;;8.00;90.10;;;;;;5113008;28;20042;-77
2022/09/30 03:09:34;;;;;;;4.32;3.42;;;8.00;90.70;;;;;;5095715;28;20039;-77
2022/09/30 03:12:25;;;;;;;4.20;3.67;;;7.90;90.30;;;;;;5112685;28;20083;-77
2022/09/30 03:14:59;;;;;;;17.05;4.60;;;7.90;90.40;;;;;;5112561;28;20515;-77
2022/09/30 03:17:33;;;;;;;;;;;7.90;90.50;;;;;;5113032;28;20043;-77
2022/09/30 03:20:04;;;;;;;24.10;4.20;;;7.90;91.00;;;;;;5094942;28;19916;-77
2022/09/30 03:23:02;;;;;;;113.10;7.80;;;7.80;90.80;;;;;;5112522;28;20046;-77
2022/09/30 03:25:27;;;;;;;61.17;5.65;;;7.60;91.40;;;;;;5112353;28;20039;-77
2022/09/30 03:28:22;;;;;;;10.45;2.80;;;7.60;91.60;;;;;;5112408;28;20039;-77
2022/09/30 03:31:00;;;;;;;31.42;4.05;;;7.60;91.80;;;;;;5112444;28;20032;-77
2022/09/30 03:33:38;;;;;;;40.47;5.13;;;7.60;92.00;;;;;;5112327;28;20044;-77
2022/09/30 03:36:22;;;;;;;19.88;4.35;;;7.60;92.30;;;;;;5112307;28;20040;-77
2022/09/30 03:39:12;;;;;;;5.95;1.80;;;7.60;92.50;;;;;;5095389;28;20051;-77
2022/09/30 03:41:48;;;;;;;17.63;3.70;;;7.60;92.50;;;;;;5112221;28;20046;-76
2022/09/30 03:44:14;;;;;;;7.13;3.00;;;7.60;92.40;;;;;;5112131;28;20047;-77
2022/09/30 03:46:50;;;;;;;3.28;2.97;;;7.60;92.40;;;;;;5112150;28;20032;-77
2022/09/30 03:49:23;;;;;;;3.47;3.17;;;7.60;91.90;;;;;;5112395;28;20039;-77
2022/09/30 03:51:48;;;;;;;7.55;2.88;;;7.60;91.60;;;;;;5112130;28;20506;-77
2022/09/30 03:54:15;;;;;;;4.40;3.40;;;7.60;91.40;;;;;;5095138;28;20048;-77
2022/09/30 03:56:42;;;;;;;4.50;3.67;;;7.60;91.40;;;;;;5095450;28;20047;-77
2022/09/30 03:59:26;;;;;;;4.32;3.70;;;7.60;91.70;;;;;;5111960;28;20039;-77
2022/09/30 04:01:52;;;;;;;;;;;7.50;91.50;;;;;;5112676;28;20464;-77
2022/09/30 04:04:18;;;;;;;4.20;3.33;;;7.60;92.00;;;;;;5111856;28;19963;-77
2022/09/30 04:06:44;;;;;;;3.83;3.38;;;7.50;91.70;;;;;;5112009;28;20118;-77
2022/09/30 04:09:10;;;;;;;4.00;3.35;;;7.50;91.60;;;;;;5111940;28;20132;-77
2022/09/30 04:11:35;;;;;;;12.60;5.15;;;7.50;91.60;;;;;;5095019;28;20055;-77
2022/09/30 04:14:02;;;;;;;3.53;3.22;;;7.50;91.60;;;;;;5111856;28;20042;-77
2022/09/30 04:16:31;;;;;;;4.50;3.58;;;7.50;91.60;;;;;;5111829;28;20035;-77
2022/09/30 04:18:57;;;;;;;5.38;3.10;;;7.60;91.50;;;;;;5111847;28;20510;-78
2022/09/30 04:21:23;;;;;;;3.95;3.45;;;7.50;91.50;;;;;;5111860;28;20590;-76
2022/09/30 04:23:49;;;;;;;3.30;2.90;;;7.50;91.50;;;;;;5111905;28;20036;-77
2022/09/30 04:26:18;;;;;;;5.25;3.28;;;7.50;91.30;;;;;;5111714;28;20126;-77
2022/09/30 04:28:45;;;;;;;28.67;4.90;;;7.50;91.60;;;;;;5111944;28;20040;-77
2022/09/30 04:31:11;;;;;;;42.45;5.70;;;7.40;92.50;;;;;;5115220;28;20384;-77
2022/09/30 04:33:38;;;;;;;25.15;5.03;;;7.40;92.40;;;;;;5115638;28;20076;-78
2022/09/30 04:36:05;;;;;;;26.10;4.45;;;7.40;92.60;;;;;;5098730;28;20057;-77
2022/09/30 04:38:31;;;;;;;17.38;5.30;;;7.30;92.90;;;;;;5115336;28;20059;-78
2022/09/30 04:41:02;;;;;;;34.45;5.22;;;7.20;93.00;;;;;;5115585;28;20526;-77
2022/09/30 04:43:28;;;;;;;61.97;6.55;;;7.20;92.80;;;;;;5115420;28;20039;-79
2022/09/30 04:45:56;;;;;;;68.75;8.18;;;7.20;93.10;;;;;;5115439;28;20108;-77
2022/09/30 04:48:21;;;;;;;69.97;7.57;;;7.20;93.20;;;;;;5115661;28;20087;-79
2022/09/30 04:50:47;;;;;;;26.83;5.68;;;7.10;93.40;;;;;;5098395;28;20122;-78
2022/09/30 04:53:14;;;;;;;45.50;6.20;;;7.10;93.50;;;;;;5115353;28;20045;-78
2022/09/30 04:55:43;;;;;;;29.38;5.55;;;7.10;93.40;;;;;;5115285;28;20740;-79
2022/09/30 04:58:10;;;;;;;13.27;4.18;;;7.10;92.90;;;;;;5115481;28;20036;-79
2022/09/30 05:00:36;;;;;;;13.35;4.07;;;7.00;93.60;;;;;;5114893;28;20039;-77
2022/09/30 05:03:02;;;;;;;18.30;4.63;;;7.00;93.50;;;;;;5115394;28;20036;-77
2022/09/30 05:05:28;;;;;;;15.23;4.00;;;7.00;93.50;;;;;;5098003;28;20043;-77
2022/09/30 05:08:01;;;;;;;24.77;6.43;;;7.00;93.50;;;;;;5098569;28;20057;-77
2022/09/30 05:10:28;;;;;;;16.20;7.75;;;7.00;93.60;;;;;;5115170;28;20046;-77
2022/09/30 05:12:55;;;;;;;13.00;6.60;;;7.00;93.80;;;;;;5115275;28;20039;-77
2022/09/30 05:15:20;;;;;;;16.35;6.68;;;7.10;94.20;;;;;;5114878;28;20548;-77
2022/09/30 05:17:48;;;;;;;118.68;14.43;;;7.10;94.20;;;;;;5115135;28;20048;-77
2022/09/30 05:20:14;;;;;;;44.42;8.93;;;7.10;94.30;;;;;;5097841;28;20082;-77
2022/09/30 05:22:39;;;;;;;42.92;7.55;;;7.10;94.00;;;;;;5115062;28;20079;-77
2022/09/30 05:25:06;;;;;;;101.70;10.80;;;7.10;93.90;;;;;;5114404;28;20467;-77
2022/09/30 05:27:32;;;;;;;135.55;11.07;;;7.10;94.00;;;;;;5113852;28;20036;-78
2022/09/30 05:29:57;;;;;;;150.57;14.38;;;7.20;94.30;;;;;;5096367;28;20071;-78
2022/09/30 05:32:24;;;;;;;112.30;12.73;;;7.10;94.30;;;;;;5104301;28;20110;-78
2022/09/30 05:34:50;;;;;;;111.35;10.23;;;7.20;93.70;;;;;;5086406;28;20032;-77
2022/09/30 05:37:16;;;;;;;86.07;8.82;;;7.20;93.50;;;;;;5084904;28;20400;-78
2022/09/30 05:39:42;;;;;;;62.00;7.35;;;7.10;93.30;;;;;;5110605;28;20059;-77
2022/09/30 05:42:08;;;;;;;56.38;6.93;;;7.20;93.30;;;;;;5105361;28;20070;-77
2022/09/30 05:44:33;;;;;;;133.15;11.98;;;7.10;93.10;;;;;;5110229;28;20381;-77
2022/09/30 05:46:59;;;;;;;67.72;9.15;;;7.20;93.50;;;;;;5097273;28;20035;-77
2022/09/30 05:49:25;;;;;;;51.78;6.95;;;7.30;93.60;;;;;;5105932;28;20119;-77
2022/09/30 05:51:51;;;;;;;251.93;17.40;;;7.30;93.60;;;;;;5094053;28;20036;-76
2022/09/30 05:54:17;;;;;;;109.65;11.90;;;7.40;93.40;;;;;;5077144;28;20483;-77
2022/09/30 05:56:43;;;;;;;66.07;8.02;;;7.40;94.00;;;;;;5093714;28;20051;-78
2022/09/30 05:59:09;;;;;;;170.48;14.90;;;7.30;94.20;;;;;;5077123;28;20047;-77
2022/09/30 06:01:35;;;;;;;21.67;3.88;;;7.40;94.30;;;;;;5093642;28;20131;-76
2022/09/30 06:04:01;;;;;;;173.13;15.45;;;7.40;94.10;;;;;;5060264;28;20040;-76
2022/09/30 06:06:29;;;;;;;164.10;13.43;;;7.40;94.30;;;;;;5093516;28;20048;-78
2022/09/30 06:08:55;;;;;;;32.55;6.80;;;7.40;94.50;;;;;;5076794;28;20054;-77
2022/09/30 06:11:23;;;;;;;31.02;5.70;;;7.30;94.50;;;;;;5093682;28;20052;-76
2022/09/30 06:13:50;;;;;;;70.65;9.27;;;7.30;94.60;;;;;;5093368;28;20076;-78
2022/09/30 06:16:17;;;;;;;99.38;10.73;;;7.40;94.90;;;;;;5093620;28;20488;-78
2022/09/30 06:18:43;;;;;;;38.13;7.15;;;7.50;94.90;;;;;;5091791;28;20040;-77
2022/09/30 06:21:12;;;;;;;33.53;7.03;;;7.50;95.10;;;;;;5092168;28;20078;-77
2022/09/30 06:23:38;;;;;;;55.53;9.85;;;7.50;95.00;;;;;;5092879;28;20071;-77
2022/09/30 06:26:05;;;;;;;13.30;6.50;;;7.60;95.10;;;;;;5093155;28;20055;-77
2022/09/30 06:28:34;;;;;;;8.88;5.88;;;7.60;95.20;;;;;;5076236;28;20076;-77
2022/09/30 06:31:04;;;;;;;3.97;3.30;;;7.70;95.10;;;;;;5076734;28;20032;-78
2022/09/30 06:33:30;;;;;;;3.33;2.88;;;7.70;94.80;;;;;;5092965;28;20476;-77
2022/09/30 06:35:56;;;;;;;2.40;2.20;;;7.60;94.50;;;;;;5092910;28;20035;-77
2022/09/30 06:38:22;;;;;;;1.75;1.65;;;7.60;94.30;;;;;;5092955;28;20048;-78
2022/09/30 06:40:49;;;;;;;3.35;2.00;;;7.50;94.10;;;;;;5076062;28;20051;-78
2022/09/30 06:43:18;;;;;;;2.30;2.10;;;7.50;93.90;;;;;;5075861;28;20085;-78
2022/09/30 06:45:45;;;;;;;2.15;1.90;;;7.50;93.80;;;;;;5092788;28;20062;-78
2022/09/30 06:48:11;;;;;;;2.67;2.42;;;7.50;93.70;;;;;;5092793;28;20032;-78
2022/09/30 06:50:38;;;;;;;4.00;3.53;;;7.50;93.70;;;;;;5092937;28;20065;-78
2022/09/30 06:53:06;;;;;;;6.95;4.55;;;7.60;93.70;;;;;;5058511;28;20044;-78
2022/09/30 06:55:32;;;;;;;6.55;5.13;;;7.70;93.80;;;;;;5092427;28;20040;-78
2022/09/30 06:57:58;;;;;;;8.20;5.65;;;7.90;94.10;;;;;;5092890;28;20036;-78
2022/09/30 07:00:27;;;;;;;3.55;3.22;;;8.00;94.30;;;;;;5092501;28;20143;-78
2022/09/30 07:02:55;;;;;;;6.47;5.53;;;8.10;94.10;;;;;;5092539;28;20488;-77
2022/09/30 07:05:22;;;;;;;6.53;4.97;;;8.30;94.50;;;;;;5075892;28;20052;-78
2022/09/30 07:07:48;;;;;;;8.73;5.78;;;8.40;95.10;;;;;;5092417;28;20031;-78
2022/09/30 07:10:14;;;;;;;7.07;5.65;;;8.50;94.90;;;;;;5092711;28;20036;-77
2022/09/30 07:12:41;;;;;;;7.30;6.47;;;8.50;94.80;;;;;;5075652;28;20465;-78
2022/09/30 07:15:07;;;;;;;8.23;6.93;;;8.70;94.70;;;;;;5092477;28;20052;-78
2022/09/30 07:17:32;;;;;;;10.07;6.40;;;8.80;94.80;;;;;;5092296;28;20058;-77
2022/09/30 07:19:58;;;;;;;9.25;6.68;;;8.90;94.50;;;;;;5075571;28;20130;-77
2022/09/30 07:22:28;;;;;;;9.73;7.28;;;9.00;94.30;;;;;;5092133;28;20040;-77
2022/09/30 07:24:59;;;;;;;9.55;8.57;;;9.10;94.50;;;;;;5075818;28;20097;-77
2022/09/30 07:27:26;;;;;;;10.98;7.60;;;9.30;94.70;;;;;;5075397;28;20051;-77
2022/09/30 07:29:53;;;;;;;8.32;6.90;;;9.40;94.80;;;;;;5092319;28;20036;-77
2022/09/30 07:32:20;;;;;;;6.78;5.78;;;9.60;94.50;;;;;;5092242;28;20032;-78
2022/09/30 07:34:46;;;;;;;14.45;10.52;;;9.60;94.00;;;;;;5091912;28;20055;-77
2022/09/30 07:37:14;;;;;;;16.65;11.48;;;9.80;95.20;;;;;;5075230;28;20044;-77
2022/09/30 07:39:41;;;;;;;15.18;10.05;;;10.10;95.30;;;;;;5091881;28;20056;-77
2022/09/30 07:42:07;;;;;;;12.50;9.70;;;10.30;95.10;;;;;;5092018;28;20051;-77
2022/09/30 07:44:33;;;;;;;11.65;9.80;;;10.50;95.60;;;;;;5091706;28;20044;-77
2022/09/30 07:47:02;;;;;;;11.05;8.88;;;10.60;95.60;;;;;;5075557;28;20071;-77
2022/09/30 07:49:28;;;;;;;14.77;10.70;;;10.70;95.40;;;;;;5092207;28;20036;-77
2022/09/30 07:51:57;;;;;;;13.68;9.65;;;10.80;95.40;;;;;;5092070;28;20044;-77
2022/09/30 07:54:26;;;;;;;13.35;10.45;;;10.90;94.50;;;;;;5091658;28;20062;-78
2022/09/30 07:56:52;;;;;;;14.73;9.40;;;11.00;95.00;;;;;;5091722;28;20071;-78
2022/09/30 07:59:19;;;;;;;9.88;7.30;;;11.20;95.00;;;;;;5091924;28;20082;-77
2022/09/30 08:01:45;;;;;;;9.05;6.95;;;11.30;95.20;;;;;;5074844;28;20048;-77
2022/09/30 08:04:12;;;;;;;11.18;7.03;;;11.40;94.40;;;;;;5091565;28;20229;-77
2022/09/30 08:06:41;;;;;;;8.15;6.78;;;11.50;94.30;;;;;;5078673;28;20046;-78
2022/09/30 08:09:08;;;;;;;6.85;5.35;;;11.60;93.90;;;;;;5078872;28;20047;-78
2022/09/30 08:11:35;;;;;;;5.38;4.72;;;11.70;93.90;;;;;;5079150;28;20439;-78
2022/09/30 08:14:00;;;;;;;6.75;5.82;;;11.90;93.90;;;;;;5078670;28;20514;-78
2022/09/30 08:16:27;;;;;;;7.00;4.93;;;12.00;93.40;;;;;;5062091;28;20067;-77
2022/09/30 08:18:58;;;;;;;6.68;4.18;;;12.20;93.10;;;;;;5079018;28;20040;-77
2022/09/30 08:21:24;;;;;;;4.38;3.97;;;12.20;92.50;;;;;;5095571;28;20039;-77
2022/09/30 08:23:50;;;;;;;8.10;4.47;;;12.30;91.90;;;;;;5095432;28;20080;-77
2022/09/30 08:26:16;;;;;;;4.00;3.60;;;12.50;91.20;;;;;;5095411;28;20039;-77
2022/09/30 08:28:45;;;;;;;3.50;2.90;;;12.50;90.10;;;;;;5095381;28;20039;-77
2022/09/30 08:31:20;;;;;;;3.97;2.95;;;12.60;90.80;;;;;;5078548;28;20036;-78
2022/09/30 08:33:46;;;;;;;3.28;2.75;;;12.70;89.40;;;;;;5095359;28;20037;-77
2022/09/30 08:36:18;;;;;;;3.95;2.88;;;12.90;89.90;;;;;;5095305;28;20232;-78
2022/09/30 08:38:44;;;;;;;3.15;2.13;;;12.90;88.70;;;;;;5078162;28;20056;-78
2022/09/30 08:41:21;;;;;;;4.10;2.40;;;13.00;88.90;;;;;;5078247;28;20052;-78
2022/09/30 08:44:23;;;;;;;4.35;3.17;;;13.10;88.40;;;;;;5078408;28;20083;-78
2022/09/30 08:47:17;;;;;;;3.85;3.38;;;13.20;88.00;;;;;;5095126;28;20040;-78
2022/09/30 08:49:59;;;;;;;3.53;3.03;;;13.30;88.10;;;;;;5095383;28;20047;-78
2022/09/30 08:52:39;;;;;;;3.22;2.92;;;13.50;88.60;;;;;;5095042;28;20075;-78
2022/09/30 08:55:06;;;;;;;3.05;2.72;;;13.50;88.00;;;;;;5078168;28;20455;-78
2022/09/30 08:57:37;;;;;;;4.00;3.20;;;13.50;87.80;;;;;;5078038;28;20052;-78
2022/09/30 09:00:09;;;;;;;6.35;3.35;;;13.50;86.50;;;;;;5078034;28;20048;-77
2022/09/30 09:02:53;;;;;;;5.70;4.60;;;13.60;87.20;;;;;;5095109;28;20047;-78
2022/09/30 09:05:30;;;;;;;5.32;4.57;;;13.60;86.70;;;;;;5094665;28;20109;-77
2022/09/30 09:08:15;;;;;;;8.55;5.75;;;13.70;86.10;;;;;;5077900;28;20123;-78
2022/09/30 09:11:01;;;;;;;6.72;5.65;;;13.80;86.70;;;;;;5094782;28;20040;-78
2022/09/30 09:13:55;;;;;;;8.30;6.72;;;13.90;86.80;;;;;;5094535;28;20051;-78
2022/09/30 09:17:00;;;;;;;6.93;5.78;;;14.00;87.10;;;;;;5076578;28;20520;-78
2022/09/30 09:19:35;;;;;;;7.35;6.25;;;14.10;87.10;;;;;;5054488;28;20040;-78
2022/09/30 09:22:01;;;;;;;7.13;6.00;;;14.10;86.50;;;;;;5094655;28;20040;-78
2022/09/30 09:24:36;;;;;;;7.70;5.43;;;14.30;86.20;;;;;;5077361;28;20113;-78
2022/09/30 09:27:25;;;;;;;6.38;5.45;;;14.40;86.40;;;;;;5077728;28;20131;-78
2022/09/30 09:30:11;;;;;;;6.50;5.70;;;14.50;85.20;;;;;;5094376;28;20522;-78
2022/09/30 09:32:37;;;;;;;6.32;5.20;;;14.60;83.90;;;;;;5094234;28;20050;-78
2022/09/30 09:35:36;;;;;;;5.75;5.22;;;14.60;83.60;;;;;;5077600;28;20083;-78
2022/09/30 09:38:24;;;;;;;7.05;5.40;;;14.70;83.40;;;;;;5069079;28;20044;-78
2022/09/30 09:40:58;;;;;;;4.97;4.53;;;14.80;83.40;;;;;;5094082;28;20184;-78
2022/09/30 09:43:53;;;;;;;5.85;4.80;;;14.90;82.30;;;;;;5094330;28;20044;-78
2022/09/30 09:46:44;;;;;;;5.57;4.85;;;15.10;83.30;;;;;;5068077;28;20056;-78
2022/09/30 09:49:14;;;;;;;4.40;2.75;;;15.20;82.90;;;;;;5093959;28;20092;-78
2022/09/30 09:51:47;;;;;;;3.92;2.60;;;15.30;82.20;;;;;;5077082;28;20075;-78
2022/09/30 09:54:17;;;;;;;3.00;2.55;;;15.30;80.90;;;;;;5094111;28;20392;-78
2022/09/30 09:56:43;;;;;;;4.13;2.90;;;15.40;79.80;;;;;;5093889;28;20051;-79
2022/09/30 09:59:14;;;;;;;4.00;3.60;;;15.40;78.20;;;;;;5076884;28;20040;-78
2022/09/30 10:01:46;;;;;;;4.90;3.15;;;15.20;78.60;;;;;;5093784;28;20177;-78
2022/09/30 10:04:16;;;;;;;4.22;3.53;;;15.20;78.90;;;;;;5093601;28;20055;-79
2022/09/30 10:06:48;;;;;;;3.10;2.53;;;15.20;79.70;;;;;;5093554;28;20115;-79
2022/09/30 10:09:25;;;;;;;4.22;3.00;;;15.30;77.80;;;;;;5076730;28;20036;-78
2022/09/30 10:12:11;;;;;;;4.18;2.58;;;15.50;78.80;;;;;;5093702;28;20036;-78
2022/09/30 10:14:50;;;;;;;2.88;2.15;;;15.60;77.50;;;;;;5076349;28;20086;-79
2022/09/30 10:17:28;;;;;;;2.97;2.47;;;15.80;76.00;;;;;;5099507;28;20043;-78
2022/09/30 10:20:05;;;;;;;2.83;2.53;;;15.90;75.50;;;;;;5113965;28;20050;-80
2022/09/30 10:22:32;;;;;;;2.90;2.08;;;16.00;75.30;;;;;;5113016;28;20039;-79
2022/09/30 10:25:13;;;;;;;4.97;1.67;;;16.20;74.90;;;;;;5096772;28;20087;-79
2022/09/30 10:27:58;;;;;;;3.67;2.60;;;16.20;72.70;;;;;;5113249;28;20036;-79
2022/09/30 10:30:34;;;;;;;6.18;2.88;;;16.20;70.20;;;;;;5096556;28;20506;-79
2022/09/30 10:33:03;;;;;;;8.38;2.50;;;16.30;71.80;;;;;;5113539;28;20039;-79
2022/09/30 10:35:29;;;;;;;3.58;2.40;;;16.20;72.60;;;;;;5113317;28;20043;-78
2022/09/30 10:37:57;;;;;;;3.35;1.92;;;16.30;71.80;;;;;;5113158;28;20039;-78
2022/09/30 10:40:28;;;;;;;4.90;2.90;;;16.40;72.60;;;;;;5113550;28;20441;-79
2022/09/30 10:42:54;;;;;;;3.47;2.03;;;16.50;72.70;;;;;;5113358;28;20043;-79
2022/09/30 10:45:22;;;;;;;4.07;1.63;;;16.60;72.50;;;;;;5113011;28;20047;-78
2022/09/30 10:47:52;;;;;;;11.07;2.35;;;16.80;70.60;;;;;;5096313;28;20493;-79
2022/09/30 10:50:23;;;;;;;2.88;1.80;;;16.90;70.80;;;;;;5113388;28;20399;-79
2022/09/30 10:52:57;;;;;;;2.38;1.30;;;16.80;70.30;;;;;;5113039;28;20039;-79
2022/09/30 10:55:32;;;;;;;1.90;1.33;;;16.60;70.20;;;;;;5112964;28;20040;-78
2022/09/30 10:58:21;;;;;;;5.80;1.85;;;16.50;68.10;;;;;;5113266;28;20111;-77
2022/09/30 11:00:50;;;;;;;2.40;1.60;;;16.50;69.30;;;;;;5096202;28;20391;-79
2022/09/30 11:03:19;;;;;;;4.57;2.60;;;16.70;69.20;;;;;;5113270;28;20384;-78
2022/09/30 11:05:47;;;;;;;5.15;1.30;;;16.70;69.00;;;;;;5112754;28;20101;-80
2022/09/30 11:08:21;;;;;;;1.80;1.10;;;16.90;68.30;;;;;;5079175;28;20047;-78
2022/09/30 11:10:51;;;;;;;2.70;1.73;;;16.80;66.60;;;;;;5113006;28;20043;-79
2022/09/30 11:13:45;;;;;;;5.68;1.70;;;16.90;67.60;;;;;;5112625;28;20487;-79
2022/09/30 11:16:20;;;;;;;1.70;1.60;;;16.80;67.10;;;;;;5112728;28;20548;-79
2022/09/30 11:19:08;;;;;;;2.20;1.98;;;17.00;67.70;;;;;;5112608;28;20097;-79
2022/09/30 11:21:53;;;;;;;2.28;1.50;;;17.20;68.40;;;;;;5112593;28;20051;-79
2022/09/30 11:24:35;;;;;;;1.90;1.70;;;17.10;66.10;;;;;;5112918;28;20039;-79
2022/09/30 11:27:19;;;;;;;3.53;2.10;;;17.00;67.20;;;;;;5112741;28;20031;-80
2022/09/30 11:29:44;;;;;;;2.10;1.40;;;16.90;68.40;;;;;;5095573;28;20073;-79
2022/09/30 11:32:38;;;;;;;4.05;1.52;;;17.10;67.50;;;;;;5095665;28;20285;-79
2022/09/30 11:35:42;;;;;;;2.13;1.13;;;17.30;67.50;;;;;;5095615;28;20047;-78
2022/09/30 11:38:09;;;;;;;1.25;0.90;;;17.20;67.30;;;;;;5074254;28;20047;-79
2022/09/30 11:40:47;;;;;;;1.33;0.63;;;17.20;65.50;;;;;;5111972;28;20431;-76
2022/09/30 11:43:17;;;;;;;2.40;1.20;;;17.00;65.50;;;;;;5112364;28;20055;-77
2022/09/30 11:46:01;;;;;;;1.83;1.20;;;17.10;65.70;;;;;;5112231;28;20220;-77
2022/09/30 11:48:54;;;;;;;1.48;0.80;;;17.10;66.10;;;;;;5095469;28;20063;-77
2022/09/30 11:51:42;;;;;;;2.28;0.88;;;17.20;66.30;;;;;;5112137;28;20101;-79
2022/09/30 11:54:26;;;;;;;1.00;0.90;;;17.30;66.30;;;;;;5112231;28;20081;-77
2022/09/30 11:57:26;;;;;;;2.58;1.33;;;17.30;65.40;;;;;;5112097;28;20122;-77
2022/09/30 12:00:00;;;;;;;2.35;1.10;;;17.40;65.90;;;;;;5112058;28;20201;-78
2022/09/30 12:02:39;;;;;;;1.25;1.15;;;17.20;66.70;;;;;;5112235;28;20429;-78
2022/09/30 12:05:17;;;;;;;1.85;0.98;;;17.50;67.00;;;;;;5111803;28;20050;-77
2022/09/30 12:07:48;;;;;;;3.20;1.65;;;17.50;67.50;;;;;;5111964;28;20051;-77
2022/09/30 12:10:27;;;;;;;3.55;1.52;;;17.40;67.60;;;;;;5112039;28;20506;-78
2022/09/30 12:13:00;;;;;;;2.55;1.48;;;17.30;68.90;;;;;;5112010;28;20463;-77
2022/09/30 12:15:27;;;;;;;2.05;1.15;;;17.20;69.50;;;;;;5111811;28;20075;-77
2022/09/30 12:17:59;;;;;;;1.30;0.93;;;17.40;68.90;;;;;;5095258;28;20444;-77
2022/09/30 12:20:44;;;;;;;2.45;1.17;;;17.40;68.80;;;;;;5094835;28;20074;-77
2022/09/30 12:23:35;;;;;;;3.67;1.10;;;17.40;68.40;;;;;;5111859;28;20043;-77
2022/09/30 12:26:03;;;;;;;1.67;1.40;;;17.50;68.10;;;;;;5094665;28;20082;-77
2022/09/30 12:32:00;;;;;;;3.33;1.15;;;17.50;67.60;;;;;;5111714;28;20040;-78
2022/09/30 12:34:35;;;;;;;2.60;1.42;;;17.60;66.90;;;;;;5111579;28;20040;-77
2022/09/30 12:37:31;;;;;;;1.23;1.05;;;17.70;66.40;;;;;;5111673;28;20506;-77
2022/09/30 12:40:21;;;;;;;1.40;1.00;;;17.70;64.50;;;;;;5111399;28;20055;-77
2022/09/30 12:42:57;;;;;;;3.42;1.50;;;17.90;65.00;;;;;;5111857;28;20043;-77
2022/09/30 12:45:29;;;;;;;3.35;2.13;;;17.60;66.20;;;;;;5094611;28;20043;-79
2022/09/30 12:47:57;;;;;;;5.25;1.42;;;17.90;65.90;;;;;;5111613;28;20050;-78
2022/09/30 12:50:33;;;;;;;1.70;1.30;;;17.90;66.10;;;;;;5111740;28;20503;-77
2022/09/30 12:53:16;;;;;;;3.47;1.00;;;17.80;64.20;;;;;;5115427;28;20067;-77
2022/09/30 12:55:42;;;;;;;3.25;1.13;;;17.90;64.20;;;;;;5115405;28;20116;-78
2022/09/30 12:58:22;;;;;;;3.13;1.63;;;18.00;63.70;;;;;;5098263;28;20047;-78
2022/09/30 13:01:14;;;;;;;2.30;1.50;;;17.80;63.90;;;;;;5115250;28;20176;-77
2022/09/30 13:04:09;;;;;;;2.20;1.50;;;18.00;64.20;;;;;;5115244;28;20047;-77
2022/09/30 13:06:44;;;;;;;3.35;1.73;;;18.10;62.50;;;;;;5114420;28;20087;-78
2022/09/30 13:09:15;;;;;;;2.28;1.40;;;17.90;63.40;;;;;;5115033;28;20067;-78
2022/09/30 13:11:43;;;;;;;3.00;1.60;;;17.90;63.10;;;;;;5115231;28;20039;-79
2022/09/30 13:14:43;;;;;;;2.15;1.77;;;17.90;63.50;;;;;;5115114;28;20039;-77
2022/09/30 13:17:09;;;;;;;3.17;2.30;;;18.10;62.70;;;;;;5115063;28;20139;-79
2022/09/30 13:19:50;;;;;;;2.35;1.80;;;18.00;62.80;;;;;;5114987;28;20467;-78
2022/09/30 13:22:19;;;;;;;3.45;1.98;;;17.90;61.90;;;;;;5114790;28;20100;-78
2022/09/30 13:25:01;;;;;;;2.50;1.85;;;18.00;62.70;;;;;;5097457;28;20096;-77